sensor_id;sensor_type;location;lat;lon;timestamp;P1;durP1;ratioP1;P2;durP2;ratioP2
46899;SDS011;32647;49.382;7.078;2022-10-18T00:01:09;26.85;;;16.13;;
46899;SDS011;32647;49.382;7.078;2022-10-18T00:03:55;22.42;;;14.38;;
46899;SDS011;32647;49.382;7.078;2022-10-18T00:06:41;19.52;;;15.50;;
46899;SDS011;32647;49.382;7.078;2022-10-18T00:09:27;20.30;;;13.77;;
46899;SDS011;32647;49.382;7.078;2022-10-18T00:12:13;24.02;;;14.57;;
46899;SDS011;32647;49.382;7.078;2022-10-18T00:14:59;27.35;;;17.05;;
46899;SDS011;32647;49.382;7.078;2022-10-18T00:17:45;28.70;;;17.00;;
46899;SDS011;32647;49.382;7.078;2022-10-18T00:20:31;28.33;;;13.73;;
46899;SDS011;32647;49.382;7.078;2022-10-18T00:23:17;23.42;;;15.20;;
46899;SDS011;32647;49.382;7.078;2022-10-18T00:26:07;26.10;;;15.02;;
46899;SDS011;32647;49.382;7.078;2022-10-18T00:31:44;32.70;;;17.58;;
46899;SDS011;32647;49.382;7.078;2022-10-18T00:34:30;23.33;;;13.55;;
46899;SDS011;32647;49.382;7.078;2022-10-18T00:37:17;27.70;;;13.07;;
46899;SDS011;32647;49.382;7.078;2022-10-18T00:40:03;20.77;;;13.88;;
46899;SDS011;32647;49.382;7.078;2022-10-18T00:42:49;30.02;;;15.38;;
46899;SDS011;32647;49.382;7.078;2022-10-18T00:45:35;30.45;;;15.02;;
46899;SDS011;32647;49.382;7.078;2022-10-18T00:48:21;21.77;;;15.02;;
46899;SDS011;32647;49.382;7.078;2022-10-18T00:51:08;23.25;;;14.82;;
46899;SDS011;32647;49.382;7.078;2022-10-18T00:53:54;29.25;;;16.85;;
46899;SDS011;32647;49.382;7.078;2022-10-18T00:56:40;32.42;;;17.95;;
46899;SDS011;32647;49.382;7.078;2022-10-18T00:59:29;33.53;;;17.70;;
46899;SDS011;32647;49.382;7.078;2022-10-18T01:02:15;25.98;;;16.02;;
46899;SDS011;32647;49.382;7.078;2022-10-18T01:05:03;26.85;;;15.13;;
46899;SDS011;32647;49.382;7.078;2022-10-18T01:17:06;27.05;;;16.20;;
46899;SDS011;32647;49.382;7.078;2022-10-18T01:23:50;26.77;;;16.88;;
46899;SDS011;32647;49.382;7.078;2022-10-18T01:30:16;21.85;;;15.23;;
46899;SDS011;32647;49.382;7.078;2022-10-18T01:36:16;26.45;;;15.82;;
46899;SDS011;32647;49.382;7.078;2022-10-18T01:39:19;25.45;;;14.60;;
46899;SDS011;32647;49.382;7.078;2022-10-18T01:42:09;16.55;;;11.88;;
46899;SDS011;32647;49.382;7.078;2022-10-18T01:44:58;15.45;;;11.73;;
46899;SDS011;32647;49.382;7.078;2022-10-18T01:47:47;17.08;;;11.73;;
46899;SDS011;32647;49.382;7.078;2022-10-18T01:50:34;15.57;;;11.82;;
46899;SDS011;32647;49.382;7.078;2022-10-18T01:53:24;20.65;;;10.30;;
46899;SDS011;32647;49.382;7.078;2022-10-18T02:02:08;19.75;;;12.30;;
46899;SDS011;32647;49.382;7.078;2022-10-18T02:11:15;18.30;;;14.02;;
46899;SDS011;32647;49.382;7.078;2022-10-18T02:14:04;20.70;;;12.40;;
46899;SDS011;32647;49.382;7.078;2022-10-18T02:16:53;22.48;;;15.23;;
46899;SDS011;32647;49.382;7.078;2022-10-18T02:19:48;21.65;;;14.98;;
46899;SDS011;32647;49.382;7.078;2022-10-18T02:22:38;24.77;;;16.07;;
46899;SDS011;32647;49.382;7.078;2022-10-18T02:25:27;29.05;;;18.33;;
46899;SDS011;32647;49.382;7.078;2022-10-18T02:28:15;24.80;;;13.98;;
46899;SDS011;32647;49.382;7.078;2022-10-18T02:31:06;41.60;;;20.77;;
46899;SDS011;32647;49.382;7.078;2022-10-18T02:34:04;33.88;;;19.80;;
46899;SDS011;32647;49.382;7.078;2022-10-18T02:36:59;87.18;;;28.92;;
46899;SDS011;32647;49.382;7.078;2022-10-18T02:39:47;17.63;;;13.85;;
46899;SDS011;32647;49.382;7.078;2022-10-18T02:42:35;37.90;;;21.20;;
46899;SDS011;32647;49.382;7.078;2022-10-18T02:45:22;23.85;;;16.05;;
46899;SDS011;32647;49.382;7.078;2022-10-18T02:48:09;30.83;;;17.83;;
46899;SDS011;32647;49.382;7.078;2022-10-18T02:50:55;31.40;;;19.63;;
46899;SDS011;32647;49.382;7.078;2022-10-18T02:53:45;26.95;;;16.42;;
46899;SDS011;32647;49.382;7.078;2022-10-18T02:56:31;23.80;;;16.27;;
46899;SDS011;32647;49.382;7.078;2022-10-18T02:59:17;28.95;;;18.55;;
46899;SDS011;32647;49.382;7.078;2022-10-18T03:02:03;33.47;;;24.58;;
46899;SDS011;32647;49.382;7.078;2022-10-18T03:04:49;45.60;;;31.83;;
46899;SDS011;32647;49.382;7.078;2022-10-18T03:07:35;45.60;;;27.63;;
46899;SDS011;32647;49.382;7.078;2022-10-18T03:10:21;62.00;;;31.33;;
46899;SDS011;32647;49.382;7.078;2022-10-18T03:13:07;50.35;;;27.13;;
46899;SDS011;32647;49.382;7.078;2022-10-18T03:15:53;31.13;;;19.80;;
46899;SDS011;32647;49.382;7.078;2022-10-18T03:18:39;23.98;;;16.95;;
46899;SDS011;32647;49.382;7.078;2022-10-18T03:21:25;34.17;;;20.88;;
46899;SDS011;32647;49.382;7.078;2022-10-18T03:24:11;26.00;;;18.88;;
46899;SDS011;32647;49.382;7.078;2022-10-18T03:26:57;30.77;;;18.75;;
46899;SDS011;32647;49.382;7.078;2022-10-18T03:29:43;32.88;;;21.33;;
46899;SDS011;32647;49.382;7.078;2022-10-18T03:32:29;35.75;;;19.23;;
46899;SDS011;32647;49.382;7.078;2022-10-18T03:35:15;72.63;;;29.55;;
46899;SDS011;32647;49.382;7.078;2022-10-18T03:38:01;34.00;;;19.17;;
46899;SDS011;32647;49.382;7.078;2022-10-18T03:40:48;66.50;;;29.50;;
46899;SDS011;32647;49.382;7.078;2022-10-18T03:43:34;30.00;;;19.83;;
46899;SDS011;32647;49.382;7.078;2022-10-18T03:46:20;35.30;;;20.55;;
46899;SDS011;32647;49.382;7.078;2022-10-18T03:49:06;26.17;;;17.95;;
46899;SDS011;32647;49.382;7.078;2022-10-18T03:51:52;47.25;;;25.65;;
46899;SDS011;32647;49.382;7.078;2022-10-18T03:54:38;25.77;;;17.30;;
46899;SDS011;32647;49.382;7.078;2022-10-18T03:57:24;30.63;;;20.02;;
46899;SDS011;32647;49.382;7.078;2022-10-18T04:00:10;22.60;;;16.13;;
46899;SDS011;32647;49.382;7.078;2022-10-18T04:02:57;26.92;;;17.83;;
46899;SDS011;32647;49.382;7.078;2022-10-18T04:05:43;29.17;;;18.98;;
46899;SDS011;32647;49.382;7.078;2022-10-18T04:08:30;43.28;;;22.30;;
46899;SDS011;32647;49.382;7.078;2022-10-18T04:11:16;23.65;;;16.08;;
46899;SDS011;32647;49.382;7.078;2022-10-18T04:14:02;17.30;;;14.48;;
46899;SDS011;32647;49.382;7.078;2022-10-18T04:16:48;25.85;;;15.25;;
46899;SDS011;32647;49.382;7.078;2022-10-18T04:19:34;51.90;;;26.63;;
46899;SDS011;32647;49.382;7.078;2022-10-18T04:22:20;48.75;;;23.33;;
46899;SDS011;32647;49.382;7.078;2022-10-18T04:25:06;39.42;;;22.83;;
46899;SDS011;32647;49.382;7.078;2022-10-18T04:27:52;37.10;;;21.45;;
46899;SDS011;32647;49.382;7.078;2022-10-18T04:30:38;39.15;;;23.15;;
46899;SDS011;32647;49.382;7.078;2022-10-18T04:33:24;36.10;;;22.65;;
46899;SDS011;32647;49.382;7.078;2022-10-18T04:36:10;31.10;;;22.27;;
46899;SDS011;32647;49.382;7.078;2022-10-18T04:38:56;29.50;;;21.05;;
46899;SDS011;32647;49.382;7.078;2022-10-18T04:41:42;45.00;;;25.25;;
46899;SDS011;32647;49.382;7.078;2022-10-18T04:44:28;58.30;;;28.35;;
46899;SDS011;32647;49.382;7.078;2022-10-18T04:47:15;40.97;;;24.85;;
46899;SDS011;32647;49.382;7.078;2022-10-18T04:50:02;68.43;;;30.13;;
46899;SDS011;32647;49.382;7.078;2022-10-18T04:52:49;56.05;;;27.92;;
46899;SDS011;32647;49.382;7.078;2022-10-18T04:55:35;41.63;;;24.98;;
46899;SDS011;32647;49.382;7.078;2022-10-18T04:58:21;47.50;;;24.73;;
46899;SDS011;32647;49.382;7.078;2022-10-18T05:01:07;34.83;;;21.55;;
46899;SDS011;32647;49.382;7.078;2022-10-18T05:03:53;27.25;;;20.65;;
46899;SDS011;32647;49.382;7.078;2022-10-18T05:06:40;24.45;;;19.23;;
46899;SDS011;32647;49.382;7.078;2022-10-18T05:09:25;42.05;;;25.27;;
46899;SDS011;32647;49.382;7.078;2022-10-18T05:12:11;32.90;;;22.05;;
46899;SDS011;32647;49.382;7.078;2022-10-18T05:14:57;128.80;;;42.45;;
46899;SDS011;32647;49.382;7.078;2022-10-18T05:17:43;69.10;;;31.63;;
46899;SDS011;32647;49.382;7.078;2022-10-18T05:20:29;78.50;;;34.83;;
46899;SDS011;32647;49.382;7.078;2022-10-18T05:23:15;97.72;;;38.45;;
46899;SDS011;32647;49.382;7.078;2022-10-18T05:26:02;60.35;;;30.15;;
46899;SDS011;32647;49.382;7.078;2022-10-18T05:28:50;63.28;;;31.85;;
46899;SDS011;32647;49.382;7.078;2022-10-18T05:31:36;55.13;;;28.10;;
46899;SDS011;32647;49.382;7.078;2022-10-18T05:34:22;47.65;;;27.90;;
46899;SDS011;32647;49.382;7.078;2022-10-18T05:37:09;75.03;;;33.28;;
46899;SDS011;32647;49.382;7.078;2022-10-18T05:39:55;53.40;;;29.65;;
46899;SDS011;32647;49.382;7.078;2022-10-18T05:42:41;84.40;;;35.15;;
46899;SDS011;32647;49.382;7.078;2022-10-18T05:45:27;59.33;;;30.88;;
46899;SDS011;32647;49.382;7.078;2022-10-18T05:48:12;80.80;;;34.42;;
46899;SDS011;32647;49.382;7.078;2022-10-18T05:50:59;76.78;;;33.13;;
46899;SDS011;32647;49.382;7.078;2022-10-18T05:53:45;61.78;;;29.23;;
46899;SDS011;32647;49.382;7.078;2022-10-18T05:56:31;58.03;;;28.80;;
46899;SDS011;32647;49.382;7.078;2022-10-18T05:59:17;50.95;;;26.83;;
46899;SDS011;32647;49.382;7.078;2022-10-18T06:02:04;81.68;;;31.90;;
46899;SDS011;32647;49.382;7.078;2022-10-18T06:04:49;56.40;;;30.42;;
46899;SDS011;32647;49.382;7.078;2022-10-18T06:07:35;78.35;;;36.53;;
46899;SDS011;32647;49.382;7.078;2022-10-18T06:10:21;42.88;;;23.17;;
46899;SDS011;32647;49.382;7.078;2022-10-18T06:13:07;64.97;;;28.23;;
46899;SDS011;32647;49.382;7.078;2022-10-18T06:15:56;58.28;;;28.50;;
46899;SDS011;32647;49.382;7.078;2022-10-18T06:18:45;33.47;;;20.52;;
46899;SDS011;32647;49.382;7.078;2022-10-18T06:21:35;66.07;;;31.55;;
46899;SDS011;32647;49.382;7.078;2022-10-18T06:24:21;42.35;;;24.02;;
46899;SDS011;32647;49.382;7.078;2022-10-18T06:27:07;34.83;;;22.08;;
46899;SDS011;32647;49.382;7.078;2022-10-18T06:29:53;36.53;;;23.23;;
46899;SDS011;32647;49.382;7.078;2022-10-18T06:32:39;45.53;;;23.92;;
46899;SDS011;32647;49.382;7.078;2022-10-18T06:35:25;45.60;;;24.50;;
46899;SDS011;32647;49.382;7.078;2022-10-18T06:38:11;34.47;;;19.80;;
46899;SDS011;32647;49.382;7.078;2022-10-18T06:40:58;24.58;;;17.58;;
46899;SDS011;32647;49.382;7.078;2022-10-18T06:43:48;24.88;;;17.75;;
46899;SDS011;32647;49.382;7.078;2022-10-18T06:46:34;34.80;;;22.15;;
46899;SDS011;32647;49.382;7.078;2022-10-18T06:49:20;33.08;;;20.35;;
46899;SDS011;32647;49.382;7.078;2022-10-18T06:52:06;26.60;;;18.67;;
46899;SDS011;32647;49.382;7.078;2022-10-18T06:54:52;35.30;;;18.27;;
46899;SDS011;32647;49.382;7.078;2022-10-18T06:57:38;17.35;;;14.32;;
46899;SDS011;32647;49.382;7.078;2022-10-18T07:00:24;19.50;;;14.63;;
46899;SDS011;32647;49.382;7.078;2022-10-18T07:03:11;21.65;;;15.57;;
46899;SDS011;32647;49.382;7.078;2022-10-18T07:05:59;29.38;;;17.02;;
46899;SDS011;32647;49.382;7.078;2022-10-18T07:08:47;21.33;;;15.50;;
46899;SDS011;32647;49.382;7.078;2022-10-18T07:11:34;26.73;;;16.08;;
46899;SDS011;32647;49.382;7.078;2022-10-18T07:14:20;22.95;;;17.00;;
46899;SDS011;32647;49.382;7.078;2022-10-18T07:17:06;28.67;;;17.77;;
46899;SDS011;32647;49.382;7.078;2022-10-18T07:19:52;25.45;;;17.73;;
46899;SDS011;32647;49.382;7.078;2022-10-18T07:22:38;24.55;;;17.67;;
46899;SDS011;32647;49.382;7.078;2022-10-18T07:25:24;20.23;;;14.20;;
46899;SDS011;32647;49.382;7.078;2022-10-18T07:28:10;22.33;;;15.65;;
46899;SDS011;32647;49.382;7.078;2022-10-18T07:30:56;21.92;;;15.55;;
46899;SDS011;32647;49.382;7.078;2022-10-18T07:33:48;15.50;;;13.15;;
46899;SDS011;32647;49.382;7.078;2022-10-18T07:36:34;15.38;;;12.80;;
46899;SDS011;32647;49.382;7.078;2022-10-18T07:39:20;18.30;;;12.27;;
46899;SDS011;32647;49.382;7.078;2022-10-18T07:42:06;14.85;;;11.45;;
46899;SDS011;32647;49.382;7.078;2022-10-18T07:44:52;13.85;;;10.95;;
46899;SDS011;32647;49.382;7.078;2022-10-18T07:47:38;13.93;;;10.68;;
46899;SDS011;32647;49.382;7.078;2022-10-18T07:50:24;14.55;;;11.10;;
46899;SDS011;32647;49.382;7.078;2022-10-18T07:53:10;16.17;;;10.10;;
46899;SDS011;32647;49.382;7.078;2022-10-18T07:56:07;13.57;;;11.02;;
46899;SDS011;32647;49.382;7.078;2022-10-18T07:59:00;14.55;;;11.27;;
46899;SDS011;32647;49.382;7.078;2022-10-18T08:01:46;12.98;;;11.23;;
46899;SDS011;32647;49.382;7.078;2022-10-18T08:04:31;13.63;;;11.05;;
46899;SDS011;32647;49.382;7.078;2022-10-18T08:07:17;16.08;;;10.88;;
46899;SDS011;32647;49.382;7.078;2022-10-18T08:10:03;18.25;;;12.02;;
46899;SDS011;32647;49.382;7.078;2022-10-18T08:12:50;20.67;;;13.00;;
46899;SDS011;32647;49.382;7.078;2022-10-18T08:15:37;22.88;;;13.82;;
46899;SDS011;32647;49.382;7.078;2022-10-18T08:18:23;20.38;;;12.93;;
46899;SDS011;32647;49.382;7.078;2022-10-18T08:21:09;17.20;;;12.40;;
46899;SDS011;32647;49.382;7.078;2022-10-18T08:23:56;22.63;;;13.30;;
46899;SDS011;32647;49.382;7.078;2022-10-18T08:26:42;17.23;;;11.88;;
46899;SDS011;32647;49.382;7.078;2022-10-18T08:29:28;18.02;;;12.63;;
46899;SDS011;32647;49.382;7.078;2022-10-18T08:32:14;19.92;;;12.73;;
46899;SDS011;32647;49.382;7.078;2022-10-18T08:35:00;19.73;;;12.98;;
46899;SDS011;32647;49.382;7.078;2022-10-18T08:37:46;17.65;;;12.38;;
46899;SDS011;32647;49.382;7.078;2022-10-18T08:40:32;15.27;;;10.45;;
46899;SDS011;32647;49.382;7.078;2022-10-18T08:46:26;12.63;;;9.18;;
46899;SDS011;32647;49.382;7.078;2022-10-18T08:55:37;7.95;;;7.15;;
46899;SDS011;32647;49.382;7.078;2022-10-18T08:58:31;8.15;;;6.45;;
46899;SDS011;32647;49.382;7.078;2022-10-18T09:01:21;10.05;;;6.32;;
46899;SDS011;32647;49.382;7.078;2022-10-18T09:04:20;6.40;;;5.40;;
46899;SDS011;32647;49.382;7.078;2022-10-18T09:13:54;9.77;;;5.18;;
46899;SDS011;32647;49.382;7.078;2022-10-18T09:20:22;7.72;;;5.85;;
46899;SDS011;32647;49.382;7.078;2022-10-18T09:26:15;9.55;;;7.13;;
46899;SDS011;32647;49.382;7.078;2022-10-18T09:35:26;9.93;;;8.30;;
46899;SDS011;32647;49.382;7.078;2022-10-18T09:38:16;10.43;;;8.82;;
46899;SDS011;32647;49.382;7.078;2022-10-18T09:41:07;12.77;;;8.35;;
46899;SDS011;32647;49.382;7.078;2022-10-18T09:44:01;10.60;;;7.28;;
46899;SDS011;32647;49.382;7.078;2022-10-18T09:46:56;10.85;;;7.40;;
46899;SDS011;32647;49.382;7.078;2022-10-18T09:49:56;7.50;;;6.22;;
46899;SDS011;32647;49.382;7.078;2022-10-18T09:56:18;9.60;;;5.88;;
46899;SDS011;32647;49.382;7.078;2022-10-18T10:02:27;8.73;;;6.63;;
46899;SDS011;32647;49.382;7.078;2022-10-18T10:05:13;8.18;;;6.70;;
46899;SDS011;32647;49.382;7.078;2022-10-18T10:08:00;11.10;;;7.22;;
46899;SDS011;32647;49.382;7.078;2022-10-18T10:10:47;8.68;;;7.45;;
46899;SDS011;32647;49.382;7.078;2022-10-18T10:13:33;10.15;;;8.48;;
46899;SDS011;32647;49.382;7.078;2022-10-18T10:16:19;14.23;;;10.32;;
46899;SDS011;32647;49.382;7.078;2022-10-18T10:19:05;12.52;;;10.43;;
46899;SDS011;32647;49.382;7.078;2022-10-18T10:22:01;12.95;;;10.25;;
46899;SDS011;32647;49.382;7.078;2022-10-18T10:24:50;16.15;;;11.27;;
46899;SDS011;32647;49.382;7.078;2022-10-18T10:27:43;11.35;;;10.27;;
46899;SDS011;32647;49.382;7.078;2022-10-18T10:30:31;10.93;;;9.65;;
46899;SDS011;32647;49.382;7.078;2022-10-18T10:36:22;15.00;;;10.00;;
46899;SDS011;32647;49.382;7.078;2022-10-18T10:42:00;11.63;;;8.40;;
46899;SDS011;32647;49.382;7.078;2022-10-18T10:44:50;10.60;;;8.57;;
46899;SDS011;32647;49.382;7.078;2022-10-18T10:47:39;10.00;;;7.50;;
46899;SDS011;32647;49.382;7.078;2022-10-18T10:50:25;9.57;;;7.05;;
46899;SDS011;32647;49.382;7.078;2022-10-18T10:56:57;8.80;;;6.47;;
46899;SDS011;32647;49.382;7.078;2022-10-18T10:59:53;7.95;;;6.35;;
46899;SDS011;32647;49.382;7.078;2022-10-18T11:02:41;13.95;;;7.53;;
46899;SDS011;32647;49.382;7.078;2022-10-18T11:05:27;7.50;;;6.60;;
46899;SDS011;32647;49.382;7.078;2022-10-18T11:08:17;9.77;;;7.70;;
46899;SDS011;32647;49.382;7.078;2022-10-18T11:11:14;8.27;;;7.13;;
46899;SDS011;32647;49.382;7.078;2022-10-18T11:14:15;8.35;;;6.55;;
46899;SDS011;32647;49.382;7.078;2022-10-18T11:20:23;5.68;;;5.13;;
46899;SDS011;32647;49.382;7.078;2022-10-18T11:23:30;6.93;;;5.28;;
46899;SDS011;32647;49.382;7.078;2022-10-18T11:26:23;5.13;;;4.63;;
46899;SDS011;32647;49.382;7.078;2022-10-18T11:29:24;4.70;;;4.20;;
46899;SDS011;32647;49.382;7.078;2022-10-18T11:32:38;6.40;;;5.03;;
46899;SDS011;32647;49.382;7.078;2022-10-18T11:38:37;8.15;;;6.07;;
46899;SDS011;32647;49.382;7.078;2022-10-18T11:41:37;7.65;;;5.75;;
46899;SDS011;32647;49.382;7.078;2022-10-18T11:51:00;7.53;;;6.68;;
46899;SDS011;32647;49.382;7.078;2022-10-18T12:06:32;8.02;;;5.85;;
46899;SDS011;32647;49.382;7.078;2022-10-18T12:09:39;6.45;;;5.15;;
46899;SDS011;32647;49.382;7.078;2022-10-18T12:12:29;6.30;;;5.70;;
46899;SDS011;32647;49.382;7.078;2022-10-18T12:15:19;7.07;;;5.82;;
46899;SDS011;32647;49.382;7.078;2022-10-18T12:18:10;7.97;;;6.85;;
46899;SDS011;32647;49.382;7.078;2022-10-18T12:24:03;8.40;;;7.53;;
46899;SDS011;32647;49.382;7.078;2022-10-18T12:26:55;8.77;;;7.88;;
46899;SDS011;32647;49.382;7.078;2022-10-18T12:29:46;10.07;;;8.38;;
46899;SDS011;32647;49.382;7.078;2022-10-18T12:32:37;13.80;;;8.55;;
46899;SDS011;32647;49.382;7.078;2022-10-18T12:35:25;12.88;;;8.35;;
46899;SDS011;32647;49.382;7.078;2022-10-18T12:38:20;10.00;;;7.15;;
46899;SDS011;32647;49.382;7.078;2022-10-18T12:41:21;7.05;;;6.35;;
46899;SDS011;32647;49.382;7.078;2022-10-18T12:47:04;9.73;;;4.95;;
46899;SDS011;32647;49.382;7.078;2022-10-18T12:49:55;8.27;;;5.10;;
46899;SDS011;32647;49.382;7.078;2022-10-18T12:52:44;11.38;;;4.10;;
46899;SDS011;32647;49.382;7.078;2022-10-18T13:02:18;7.97;;;4.22;;
46899;SDS011;32647;49.382;7.078;2022-10-18T13:05:47;9.50;;;4.45;;
46899;SDS011;32647;49.382;7.078;2022-10-18T13:08:40;8.43;;;3.88;;
46899;SDS011;32647;49.382;7.078;2022-10-18T13:11:30;6.20;;;4.32;;
46899;SDS011;32647;49.382;7.078;2022-10-18T13:17:37;5.18;;;3.50;;
46899;SDS011;32647;49.382;7.078;2022-10-18T13:32:23;4.18;;;3.10;;
46899;SDS011;32647;49.382;7.078;2022-10-18T13:38:35;3.28;;;2.90;;
46899;SDS011;32647;49.382;7.078;2022-10-18T13:41:31;4.80;;;2.92;;
46899;SDS011;32647;49.382;7.078;2022-10-18T13:44:36;4.45;;;2.72;;
46899;SDS011;32647;49.382;7.078;2022-10-18T13:47:31;5.72;;;3.03;;
46899;SDS011;32647;49.382;7.078;2022-10-18T13:50:34;5.30;;;3.97;;
46899;SDS011;32647;49.382;7.078;2022-10-18T13:53:43;3.92;;;3.33;;
46899;SDS011;32647;49.382;7.078;2022-10-18T14:06:23;4.55;;;3.75;;
46899;SDS011;32647;49.382;7.078;2022-10-18T14:09:22;4.80;;;3.38;;
46899;SDS011;32647;49.382;7.078;2022-10-18T14:12:13;4.93;;;3.45;;
46899;SDS011;32647;49.382;7.078;2022-10-18T14:18:05;4.63;;;2.30;;
46899;SDS011;32647;49.382;7.078;2022-10-18T14:21:15;2.08;;;1.40;;
46899;SDS011;32647;49.382;7.078;2022-10-18T14:24:12;2.35;;;1.58;;
46899;SDS011;32647;49.382;7.078;2022-10-18T14:27:17;1.10;;;1.00;;
46899;SDS011;32647;49.382;7.078;2022-10-18T14:30:18;1.88;;;1.25;;
46899;SDS011;32647;49.382;7.078;2022-10-18T14:33:05;1.65;;;1.10;;
46899;SDS011;32647;49.382;7.078;2022-10-18T14:36:41;1.73;;;1.35;;
46899;SDS011;32647;49.382;7.078;2022-10-18T14:39:26;1.38;;;0.80;;
46899;SDS011;32647;49.382;7.078;2022-10-18T14:42:18;2.47;;;1.08;;
46899;SDS011;32647;49.382;7.078;2022-10-18T14:45:16;4.80;;;1.30;;
46899;SDS011;32647;49.382;7.078;2022-10-18T14:48:05;2.05;;;0.98;;
46899;SDS011;32647;49.382;7.078;2022-10-18T14:51:00;1.42;;;1.33;;
46899;SDS011;32647;49.382;7.078;2022-10-18T14:53:50;2.78;;;1.98;;
46899;SDS011;32647;49.382;7.078;2022-10-18T14:56:37;7.55;;;2.22;;
46899;SDS011;32647;49.382;7.078;2022-10-18T14:59:27;1.95;;;1.60;;
46899;SDS011;32647;49.382;7.078;2022-10-18T15:02:18;1.98;;;1.70;;
46899;SDS011;32647;49.382;7.078;2022-10-18T15:05:21;2.90;;;1.63;;
46899;SDS011;32647;49.382;7.078;2022-10-18T15:08:08;4.78;;;1.70;;
46899;SDS011;32647;49.382;7.078;2022-10-18T15:10:55;4.72;;;2.30;;
46899;SDS011;32647;49.382;7.078;2022-10-18T15:13:45;3.03;;;2.10;;
46899;SDS011;32647;49.382;7.078;2022-10-18T15:16:40;3.35;;;2.03;;
46899;SDS011;32647;49.382;7.078;2022-10-18T15:19:30;5.82;;;2.30;;
46899;SDS011;32647;49.382;7.078;2022-10-18T15:22:21;3.67;;;2.13;;
46899;SDS011;32647;49.382;7.078;2022-10-18T15:28:15;3.95;;;2.30;;
46899;SDS011;32647;49.382;7.078;2022-10-18T15:31:21;4.73;;;2.37;;
46899;SDS011;32647;49.382;7.078;2022-10-18T15:37:14;5.32;;;3.08;;
46899;SDS011;32647;49.382;7.078;2022-10-18T15:46:25;4.45;;;2.80;;
46899;SDS011;32647;49.382;7.078;2022-10-18T15:58:16;3.28;;;2.42;;
46899;SDS011;32647;49.382;7.078;2022-10-18T16:01:16;8.35;;;3.92;;
46899;SDS011;32647;49.382;7.078;2022-10-18T16:04:41;8.40;;;4.78;;
46899;SDS011;32647;49.382;7.078;2022-10-18T16:07:28;10.57;;;4.30;;
46899;SDS011;32647;49.382;7.078;2022-10-18T16:10:14;7.45;;;5.22;;
46899;SDS011;32647;49.382;7.078;2022-10-18T16:13:00;11.65;;;5.40;;
46899;SDS011;32647;49.382;7.078;2022-10-18T16:15:45;9.90;;;4.97;;
46899;SDS011;32647;49.382;7.078;2022-10-18T16:18:32;7.85;;;6.00;;
46899;SDS011;32647;49.382;7.078;2022-10-18T16:24:11;11.52;;;7.07;;
46899;SDS011;32647;49.382;7.078;2022-10-18T16:26:57;12.63;;;10.20;;
46899;SDS011;32647;49.382;7.078;2022-10-18T16:29:43;15.20;;;9.52;;
46899;SDS011;32647;49.382;7.078;2022-10-18T16:32:29;20.23;;;12.98;;
46899;SDS011;32647;49.382;7.078;2022-10-18T16:35:14;16.58;;;13.57;;
46899;SDS011;32647;49.382;7.078;2022-10-18T16:38:00;17.35;;;13.00;;
46899;SDS011;32647;49.382;7.078;2022-10-18T16:40:47;30.10;;;16.35;;
46899;SDS011;32647;49.382;7.078;2022-10-18T16:43:33;13.38;;;10.20;;
46899;SDS011;32647;49.382;7.078;2022-10-18T16:46:24;17.30;;;6.97;;
46899;SDS011;32647;49.382;7.078;2022-10-18T16:49:19;9.52;;;7.13;;
46899;SDS011;32647;49.382;7.078;2022-10-18T16:52:07;7.82;;;6.03;;
46899;SDS011;32647;49.382;7.078;2022-10-18T16:54:53;12.10;;;6.15;;
46899;SDS011;32647;49.382;7.078;2022-10-18T16:57:39;13.20;;;7.18;;
46899;SDS011;32647;49.382;7.078;2022-10-18T17:00:25;12.60;;;7.85;;
46899;SDS011;32647;49.382;7.078;2022-10-18T17:03:12;11.27;;;8.40;;
46899;SDS011;32647;49.382;7.078;2022-10-18T17:05:58;14.63;;;8.13;;
46899;SDS011;32647;49.382;7.078;2022-10-18T17:08:44;9.77;;;7.32;;
46899;SDS011;32647;49.382;7.078;2022-10-18T17:11:30;14.23;;;10.45;;
46899;SDS011;32647;49.382;7.078;2022-10-18T17:14:16;15.25;;;11.00;;
46899;SDS011;32647;49.382;7.078;2022-10-18T17:17:02;12.77;;;10.82;;
46899;SDS011;32647;49.382;7.078;2022-10-18T17:19:48;25.17;;;13.77;;
46899;SDS011;32647;49.382;7.078;2022-10-18T17:22:34;15.18;;;10.15;;
46899;SDS011;32647;49.382;7.078;2022-10-18T17:25:20;12.63;;;9.52;;
46899;SDS011;32647;49.382;7.078;2022-10-18T17:28:06;13.45;;;10.50;;
46899;SDS011;32647;49.382;7.078;2022-10-18T17:30:53;20.30;;;11.80;;
46899;SDS011;32647;49.382;7.078;2022-10-18T17:33:39;12.40;;;8.20;;
46899;SDS011;32647;49.382;7.078;2022-10-18T17:36:25;15.68;;;10.35;;
46899;SDS011;32647;49.382;7.078;2022-10-18T17:39:11;11.43;;;9.00;;
46899;SDS011;32647;49.382;7.078;2022-10-18T17:41:57;15.57;;;10.38;;
46899;SDS011;32647;49.382;7.078;2022-10-18T17:44:44;13.93;;;8.32;;
46899;SDS011;32647;49.382;7.078;2022-10-18T17:47:30;17.75;;;10.02;;
46899;SDS011;32647;49.382;7.078;2022-10-18T17:50:16;14.15;;;9.48;;
46899;SDS011;32647;49.382;7.078;2022-10-18T17:53:02;18.42;;;12.93;;
46899;SDS011;32647;49.382;7.078;2022-10-18T17:55:48;28.42;;;12.98;;
46899;SDS011;32647;49.382;7.078;2022-10-18T17:58:34;27.60;;;14.07;;
46899;SDS011;32647;49.382;7.078;2022-10-18T18:01:21;20.95;;;13.30;;
46899;SDS011;32647;49.382;7.078;2022-10-18T18:04:07;15.48;;;11.65;;
46899;SDS011;32647;49.382;7.078;2022-10-18T18:06:53;25.98;;;13.55;;
46899;SDS011;32647;49.382;7.078;2022-10-18T18:09:41;20.25;;;13.40;;
46899;SDS011;32647;49.382;7.078;2022-10-18T18:12:27;20.67;;;16.27;;
46899;SDS011;32647;49.382;7.078;2022-10-18T18:15:13;22.48;;;17.60;;
46899;SDS011;32647;49.382;7.078;2022-10-18T18:17:59;19.60;;;13.45;;
46899;SDS011;32647;49.382;7.078;2022-10-18T18:20:49;24.77;;;14.93;;
46899;SDS011;32647;49.382;7.078;2022-10-18T18:23:36;23.95;;;15.07;;
46899;SDS011;32647;49.382;7.078;2022-10-18T18:26:22;23.80;;;16.85;;
46899;SDS011;32647;49.382;7.078;2022-10-18T18:29:09;37.20;;;16.20;;
46899;SDS011;32647;49.382;7.078;2022-10-18T18:31:57;15.45;;;10.43;;
46899;SDS011;32647;49.382;7.078;2022-10-18T18:34:44;13.88;;;8.65;;
46899;SDS011;32647;49.382;7.078;2022-10-18T18:37:29;12.68;;;8.85;;
46899;SDS011;32647;49.382;7.078;2022-10-18T18:40:15;14.90;;;8.57;;
46899;SDS011;32647;49.382;7.078;2022-10-18T18:43:01;12.07;;;8.55;;
46899;SDS011;32647;49.382;7.078;2022-10-18T18:45:50;14.00;;;10.30;;
46899;SDS011;32647;49.382;7.078;2022-10-18T18:48:36;14.07;;;9.15;;
46899;SDS011;32647;49.382;7.078;2022-10-18T18:51:23;12.10;;;8.88;;
46899;SDS011;32647;49.382;7.078;2022-10-18T18:54:10;15.70;;;9.13;;
46899;SDS011;32647;49.382;7.078;2022-10-18T18:56:58;13.32;;;7.90;;
46899;SDS011;32647;49.382;7.078;2022-10-18T18:59:46;17.23;;;11.07;;
46899;SDS011;32647;49.382;7.078;2022-10-18T19:02:33;25.63;;;14.20;;
46899;SDS011;32647;49.382;7.078;2022-10-18T19:05:19;22.73;;;15.18;;
46899;SDS011;32647;49.382;7.078;2022-10-18T19:08:05;24.00;;;13.80;;
46899;SDS011;32647;49.382;7.078;2022-10-18T19:10:51;27.17;;;17.17;;
46899;SDS011;32647;49.382;7.078;2022-10-18T19:13:37;33.47;;;19.65;;
46899;SDS011;32647;49.382;7.078;2022-10-18T19:16:36;33.90;;;19.13;;
46899;SDS011;32647;49.382;7.078;2022-10-18T19:19:24;34.17;;;19.58;;
46899;SDS011;32647;49.382;7.078;2022-10-18T19:22:12;51.70;;;22.13;;
46899;SDS011;32647;49.382;7.078;2022-10-18T19:24:58;314.77;;;30.65;;
46899;SDS011;32647;49.382;7.078;2022-10-18T19:27:44;292.63;;;29.73;;
46899;SDS011;32647;49.382;7.078;2022-10-18T19:30:30;134.48;;;23.60;;